»·PEaware :: DIHNF KMCC-KOAK

DIHNF :: KMCC-KOAK

FLIGHT INFORMATION

Flight Status: Arrived
Operator: Unknown
More flights by this operator :: More flights under this callsign
Pilot: Klaus A. (15485)
Aircraft: BEECH AIRCRAFT BARON
(BE58)
More flights by this aircraft type
Origin: KMCC McClellan
United States
Destination: KOAK Metro Oakland Intl
United States
More flights between these airports :: More routes between these airports
Route: SAC V6 REJOY V6 OAK
File this flight plan on PilotEdge
Remarks:
Altitude:
(Current/Filed)
8,000ft
Speed:
(Current/Filed)
170kts
Departed: 04-May-19 08:13 AM
Arrived: 04-May-19 08:47 AM
Distance/Time
Traveled:
68nm/0:34
Distance/Time
To Go:
Arrived

Flight Plot

Page will automatically refresh every two minutes.

Flight plan parsing failed; only flown route is shown


Map Options




Map Legend


Flown Route
Filed Route
Departure Airport
Arrival Airport
Navaid (VOR, NDB)
Fix

Horizontal Profiles

Position Reports

Time Latitude Longitude Heading Altitude Ground
Speed
04-May-19 07:53 38.663067 -121.397116 180 80ft 0kts
04-May-19 07:54 38.663067 -121.397116 180 80ft 0kts
04-May-19 07:55 38.663067 -121.397116 180 80ft 0kts
04-May-19 07:56 38.663067 -121.397116 180 80ft 0kts
04-May-19 07:57 38.663067 -121.397116 180 80ft 0kts
04-May-19 07:58 38.663067 -121.397116 180 80ft 0kts
04-May-19 07:59 38.663067 -121.397116 180 80ft 0kts
04-May-19 08:00 38.663730 -121.397858 0 80ft 16kts
04-May-19 08:01 38.669574 -121.397851 0 80ft 23kts
04-May-19 08:02 38.676510 -121.397830 0 81ft 25kts
04-May-19 08:03 38.681997 -121.397711 1 80ft 0kts
04-May-19 08:04 38.681997 -121.397711 1 80ft 0kts
04-May-19 08:05 38.682278 -121.397888 323 80ft 9kts
04-May-19 08:06 38.682630 -121.399011 265 80ft 0kts
04-May-19 08:07 38.682630 -121.399011 265 80ft 0kts
04-May-19 08:08 38.682630 -121.399011 265 80ft 0kts
04-May-19 08:09 38.682630 -121.399011 265 80ft 0kts
04-May-19 08:10 38.682476 -121.399466 233 80ft 7kts
04-May-19 08:11 38.681377 -121.400593 177 80ft 4kts
04-May-19 08:12 38.656651 -121.405456 203 1396ft 111kts
04-May-19 08:13 38.628801 -121.422934 210 3125ft 113kts
04-May-19 08:14 38.600396 -121.443236 208 4552ft 117kts
04-May-19 08:15 38.571030 -121.463269 207 5804ft 122kts
04-May-19 08:16 38.541238 -121.484523 210 6929ft 125kts
04-May-19 08:17 38.510092 -121.504994 205 7897ft 127kts
04-May-19 08:18 38.474249 -121.530756 209 7966ft 161kts
04-May-19 08:19 38.435756 -121.561772 210 8025ft 169kts
04-May-19 08:20 38.394419 -121.592592 207 7967ft 172kts
04-May-19 08:21 38.353519 -121.624851 212 7956ft 173kts
04-May-19 08:22 38.313450 -121.659054 213 7959ft 172kts
04-May-19 08:23 38.273661 -121.692792 212 7958ft 171kts
04-May-19 08:24 38.233741 -121.726138 213 7958ft 171kts
04-May-19 08:25 38.193759 -121.759231 212 7958ft 171kts
04-May-19 08:26 38.152012 -121.788995 208 7958ft 172kts
04-May-19 08:27 38.106910 -121.807974 193 7860ft 170kts
04-May-19 08:28 38.061898 -121.819843 193 6998ft 162kts
04-May-19 08:29 38.017659 -121.831705 193 6129ft 164kts
04-May-19 08:30 37.972885 -121.843984 193 5300ft 164kts
04-May-19 08:31 37.929676 -121.855704 193 5079ft 151kts
04-May-19 08:32 37.888710 -121.866738 193 5072ft 150kts
04-May-19 08:33 37.847894 -121.877397 193 5069ft 150kts
04-May-19 08:35 37.807177 -121.890835 195 4810ft 154kts
04-May-19 08:36 37.766227 -121.906470 198 4207ft 155kts
04-May-19 08:37 37.724945 -121.922060 196 3503ft 154kts
04-May-19 08:38 37.686818 -121.933579 189 3447ft 131kts
04-May-19 08:39 37.653163 -121.940794 226 3487ft 121kts
04-May-19 08:40 37.651648 -121.977070 288 3514ft 118kts
04-May-19 08:41 37.662090 -122.017379 295 3239ft 125kts
04-May-19 08:42 37.677755 -122.058950 288 2618ft 131kts
04-May-19 08:43 37.689562 -122.101808 294 1836ft 136kts
04-May-19 08:44 37.704471 -122.144701 291 1104ft 132kts
04-May-19 08:45 37.718692 -122.185467 290 458ft 114kts
04-May-19 08:46 37.728441 -122.215884 293 10ft 52kts
04-May-19 08:47 37.730027 -122.218717 77 10ft 0kts
04-May-19 08:48 37.730351 -122.217316 72 10ft 17kts
04-May-19 08:49 37.733396 -122.216215 66 10ft 9kts
04-May-19 08:50 37.733441 -122.216110 59 10ft 0kts
04-May-19 08:51 37.733441 -122.216110 59 10ft 0kts
04-May-19 08:52 37.733441 -122.216110 59 10ft 0kts
04-May-19 08:53 37.733441 -122.216110 59 10ft 0kts

Navigation Log

Ident Type
Flight plan parsing failed, navigation log unavailable